sensor_id;sensor_type;location;lat;lon;timestamp;P1;durP1;ratioP1;P2;durP2;ratioP2
51384;SDS011;37478;55.682;37.462;2023-04-19T00:00:55;12.40;;;6.53;;
51384;SDS011;37478;55.682;37.462;2023-04-19T00:03:21;13.05;;;6.55;;
51384;SDS011;37478;55.682;37.462;2023-04-19T00:05:48;11.32;;;5.88;;
51384;SDS011;37478;55.682;37.462;2023-04-19T00:08:13;15.75;;;6.45;;
51384;SDS011;37478;55.682;37.462;2023-04-19T00:10:39;9.52;;;5.78;;
51384;SDS011;37478;55.682;37.462;2023-04-19T00:13:04;12.02;;;5.85;;
51384;SDS011;37478;55.682;37.462;2023-04-19T00:15:30;12.93;;;6.85;;
51384;SDS011;37478;55.682;37.462;2023-04-19T00:17:55;12.35;;;5.60;;
51384;SDS011;37478;55.682;37.462;2023-04-19T00:20:21;10.88;;;6.30;;
51384;SDS011;37478;55.682;37.462;2023-04-19T00:22:46;13.38;;;6.55;;
51384;SDS011;37478;55.682;37.462;2023-04-19T00:25:12;11.38;;;6.20;;
51384;SDS011;37478;55.682;37.462;2023-04-19T00:27:37;10.15;;;6.50;;
51384;SDS011;37478;55.682;37.462;2023-04-19T00:30:02;10.73;;;7.28;;
51384;SDS011;37478;55.682;37.462;2023-04-19T00:32:28;14.20;;;7.78;;
51384;SDS011;37478;55.682;37.462;2023-04-19T00:34:53;10.98;;;6.53;;
51384;SDS011;37478;55.682;37.462;2023-04-19T00:37:18;10.38;;;6.60;;
51384;SDS011;37478;55.682;37.462;2023-04-19T00:39:44;14.10;;;6.47;;
51384;SDS011;37478;55.682;37.462;2023-04-19T00:42:10;15.20;;;7.50;;
51384;SDS011;37478;55.682;37.462;2023-04-19T00:44:35;14.25;;;7.35;;
51384;SDS011;37478;55.682;37.462;2023-04-19T00:47:00;12.88;;;7.05;;
51384;SDS011;37478;55.682;37.462;2023-04-19T00:49:26;12.65;;;6.38;;
51384;SDS011;37478;55.682;37.462;2023-04-19T00:51:51;16.40;;;6.82;;
51384;SDS011;37478;55.682;37.462;2023-04-19T00:54:17;14.05;;;7.38;;
51384;SDS011;37478;55.682;37.462;2023-04-19T00:56:43;14.02;;;6.57;;
51384;SDS011;37478;55.682;37.462;2023-04-19T00:59:08;13.00;;;7.00;;
51384;SDS011;37478;55.682;37.462;2023-04-19T01:01:34;13.15;;;6.72;;
51384;SDS011;37478;55.682;37.462;2023-04-19T01:04:00;12.13;;;6.50;;
51384;SDS011;37478;55.682;37.462;2023-04-19T01:06:26;16.00;;;7.53;;
51384;SDS011;37478;55.682;37.462;2023-04-19T01:08:52;16.58;;;7.32;;
51384;SDS011;37478;55.682;37.462;2023-04-19T01:11:17;10.90;;;6.97;;
51384;SDS011;37478;55.682;37.462;2023-04-19T01:13:43;15.82;;;7.18;;
51384;SDS011;37478;55.682;37.462;2023-04-19T01:16:08;16.30;;;7.50;;
51384;SDS011;37478;55.682;37.462;2023-04-19T01:18:33;10.45;;;6.97;;
51384;SDS011;37478;55.682;37.462;2023-04-19T01:21:01;14.50;;;7.32;;
51384;SDS011;37478;55.682;37.462;2023-04-19T01:23:27;13.55;;;8.30;;
51384;SDS011;37478;55.682;37.462;2023-04-19T01:25:52;14.77;;;7.95;;
51384;SDS011;37478;55.682;37.462;2023-04-19T01:28:17;13.05;;;7.35;;
51384;SDS011;37478;55.682;37.462;2023-04-19T01:30:43;13.57;;;7.82;;
51384;SDS011;37478;55.682;37.462;2023-04-19T01:33:08;13.07;;;7.40;;
51384;SDS011;37478;55.682;37.462;2023-04-19T01:35:33;13.07;;;7.88;;
51384;SDS011;37478;55.682;37.462;2023-04-19T01:37:58;13.95;;;7.30;;
51384;SDS011;37478;55.682;37.462;2023-04-19T01:40:25;23.15;;;7.63;;
51384;SDS011;37478;55.682;37.462;2023-04-19T01:42:50;13.13;;;6.93;;
51384;SDS011;37478;55.682;37.462;2023-04-19T01:45:16;14.70;;;7.30;;
51384;SDS011;37478;55.682;37.462;2023-04-19T01:47:41;15.98;;;7.07;;
51384;SDS011;37478;55.682;37.462;2023-04-19T01:50:06;12.55;;;7.93;;
51384;SDS011;37478;55.682;37.462;2023-04-19T01:52:32;14.45;;;8.07;;
51384;SDS011;37478;55.682;37.462;2023-04-19T01:54:57;14.20;;;8.82;;
51384;SDS011;37478;55.682;37.462;2023-04-19T01:57:22;9.38;;;6.78;;
51384;SDS011;37478;55.682;37.462;2023-04-19T01:59:48;17.38;;;8.23;;
51384;SDS011;37478;55.682;37.462;2023-04-19T02:02:14;14.70;;;7.38;;
51384;SDS011;37478;55.682;37.462;2023-04-19T02:04:39;13.18;;;7.78;;
51384;SDS011;37478;55.682;37.462;2023-04-19T02:07:04;16.25;;;8.60;;
51384;SDS011;37478;55.682;37.462;2023-04-19T02:09:30;14.68;;;7.45;;
51384;SDS011;37478;55.682;37.462;2023-04-19T02:11:55;18.67;;;7.95;;
51384;SDS011;37478;55.682;37.462;2023-04-19T02:14:20;14.40;;;7.53;;
51384;SDS011;37478;55.682;37.462;2023-04-19T02:16:46;12.60;;;7.93;;
51384;SDS011;37478;55.682;37.462;2023-04-19T02:19:11;13.15;;;6.97;;
51384;SDS011;37478;55.682;37.462;2023-04-19T02:21:36;13.38;;;7.75;;
51384;SDS011;37478;55.682;37.462;2023-04-19T02:24:02;14.68;;;8.32;;
51384;SDS011;37478;55.682;37.462;2023-04-19T02:26:27;12.70;;;7.60;;
51384;SDS011;37478;55.682;37.462;2023-04-19T02:28:52;13.43;;;6.72;;
51384;SDS011;37478;55.682;37.462;2023-04-19T02:31:17;12.57;;;7.30;;
51384;SDS011;37478;55.682;37.462;2023-04-19T02:33:43;11.35;;;7.30;;
51384;SDS011;37478;55.682;37.462;2023-04-19T02:36:10;11.73;;;7.45;;
51384;SDS011;37478;55.682;37.462;2023-04-19T02:38:36;13.25;;;8.05;;
51384;SDS011;37478;55.682;37.462;2023-04-19T02:41:01;16.38;;;7.80;;
51384;SDS011;37478;55.682;37.462;2023-04-19T02:43:28;12.88;;;7.10;;
51384;SDS011;37478;55.682;37.462;2023-04-19T02:45:53;14.68;;;7.03;;
51384;SDS011;37478;55.682;37.462;2023-04-19T02:48:18;14.68;;;7.15;;
51384;SDS011;37478;55.682;37.462;2023-04-19T02:50:44;12.75;;;7.30;;
51384;SDS011;37478;55.682;37.462;2023-04-19T02:53:09;10.95;;;7.03;;
51384;SDS011;37478;55.682;37.462;2023-04-19T02:55:34;14.10;;;7.40;;
51384;SDS011;37478;55.682;37.462;2023-04-19T02:58:00;12.15;;;7.80;;
51384;SDS011;37478;55.682;37.462;2023-04-19T03:00:25;14.07;;;7.35;;
51384;SDS011;37478;55.682;37.462;2023-04-19T03:02:50;11.02;;;7.53;;
51384;SDS011;37478;55.682;37.462;2023-04-19T03:05:16;14.25;;;7.50;;
51384;SDS011;37478;55.682;37.462;2023-04-19T03:07:41;14.15;;;6.72;;
51384;SDS011;37478;55.682;37.462;2023-04-19T03:10:07;12.13;;;7.53;;
51384;SDS011;37478;55.682;37.462;2023-04-19T03:12:33;11.27;;;7.28;;
51384;SDS011;37478;55.682;37.462;2023-04-19T03:14:58;13.30;;;7.38;;
51384;SDS011;37478;55.682;37.462;2023-04-19T03:17:23;13.45;;;8.02;;
51384;SDS011;37478;55.682;37.462;2023-04-19T03:19:49;16.88;;;8.07;;
51384;SDS011;37478;55.682;37.462;2023-04-19T03:22:14;12.88;;;7.28;;
51384;SDS011;37478;55.682;37.462;2023-04-19T03:24:39;16.17;;;7.45;;
51384;SDS011;37478;55.682;37.462;2023-04-19T03:27:05;11.25;;;7.07;;
51384;SDS011;37478;55.682;37.462;2023-04-19T03:29:30;14.77;;;7.07;;
51384;SDS011;37478;55.682;37.462;2023-04-19T03:31:55;14.55;;;7.63;;
51384;SDS011;37478;55.682;37.462;2023-04-19T03:34:20;23.98;;;11.50;;
51384;SDS011;37478;55.682;37.462;2023-04-19T03:36:46;15.15;;;9.80;;
51384;SDS011;37478;55.682;37.462;2023-04-19T03:39:11;16.20;;;7.82;;
51384;SDS011;37478;55.682;37.462;2023-04-19T03:41:36;13.35;;;6.95;;
51384;SDS011;37478;55.682;37.462;2023-04-19T03:44:04;13.48;;;7.95;;
51384;SDS011;37478;55.682;37.462;2023-04-19T03:46:29;12.60;;;7.65;;
51384;SDS011;37478;55.682;37.462;2023-04-19T03:48:55;12.02;;;7.53;;
51384;SDS011;37478;55.682;37.462;2023-04-19T03:51:21;11.52;;;6.82;;
51384;SDS011;37478;55.682;37.462;2023-04-19T03:53:46;17.55;;;7.70;;
51384;SDS011;37478;55.682;37.462;2023-04-19T03:56:11;14.55;;;8.50;;
51384;SDS011;37478;55.682;37.462;2023-04-19T03:58:37;11.35;;;7.30;;
51384;SDS011;37478;55.682;37.462;2023-04-19T04:01:02;12.20;;;7.25;;
51384;SDS011;37478;55.682;37.462;2023-04-19T04:03:27;15.07;;;7.03;;
51384;SDS011;37478;55.682;37.462;2023-04-19T04:05:53;13.95;;;7.47;;
51384;SDS011;37478;55.682;37.462;2023-04-19T04:08:18;13.68;;;7.75;;
51384;SDS011;37478;55.682;37.462;2023-04-19T04:10:44;13.80;;;6.95;;
51384;SDS011;37478;55.682;37.462;2023-04-19T04:13:09;15.30;;;7.10;;
51384;SDS011;37478;55.682;37.462;2023-04-19T04:15:34;13.48;;;6.97;;
51384;SDS011;37478;55.682;37.462;2023-04-19T04:18:00;19.08;;;7.43;;
51384;SDS011;37478;55.682;37.462;2023-04-19T04:20:25;9.30;;;7.40;;
51384;SDS011;37478;55.682;37.462;2023-04-19T04:22:51;15.80;;;7.35;;
51384;SDS011;37478;55.682;37.462;2023-04-19T04:25:16;14.68;;;7.97;;
51384;SDS011;37478;55.682;37.462;2023-04-19T04:27:42;10.82;;;6.82;;
51384;SDS011;37478;55.682;37.462;2023-04-19T04:30:10;10.23;;;6.70;;
51384;SDS011;37478;55.682;37.462;2023-04-19T04:32:36;12.07;;;7.57;;
51384;SDS011;37478;55.682;37.462;2023-04-19T04:35:01;11.20;;;7.22;;
51384;SDS011;37478;55.682;37.462;2023-04-19T04:37:27;13.27;;;6.90;;
51384;SDS011;37478;55.682;37.462;2023-04-19T04:39:52;16.25;;;7.72;;
51384;SDS011;37478;55.682;37.462;2023-04-19T04:42:17;14.50;;;7.22;;
51384;SDS011;37478;55.682;37.462;2023-04-19T04:44:46;12.43;;;7.45;;
51384;SDS011;37478;55.682;37.462;2023-04-19T04:47:14;13.45;;;6.82;;
51384;SDS011;37478;55.682;37.462;2023-04-19T04:49:39;17.85;;;8.30;;
51384;SDS011;37478;55.682;37.462;2023-04-19T04:52:05;9.52;;;7.05;;
51384;SDS011;37478;55.682;37.462;2023-04-19T04:54:32;17.10;;;7.40;;
51384;SDS011;37478;55.682;37.462;2023-04-19T04:56:57;12.90;;;7.25;;
51384;SDS011;37478;55.682;37.462;2023-04-19T04:59:23;18.83;;;7.13;;
51384;SDS011;37478;55.682;37.462;2023-04-19T05:01:48;14.93;;;7.05;;
51384;SDS011;37478;55.682;37.462;2023-04-19T05:04:14;19.27;;;7.68;;
51384;SDS011;37478;55.682;37.462;2023-04-19T05:06:39;13.07;;;7.47;;
51384;SDS011;37478;55.682;37.462;2023-04-19T05:09:05;16.35;;;7.32;;
51384;SDS011;37478;55.682;37.462;2023-04-19T05:11:30;13.55;;;8.23;;
51384;SDS011;37478;55.682;37.462;2023-04-19T05:13:55;16.38;;;7.00;;
51384;SDS011;37478;55.682;37.462;2023-04-19T05:16:21;14.23;;;6.82;;
51384;SDS011;37478;55.682;37.462;2023-04-19T05:18:47;14.02;;;7.72;;
51384;SDS011;37478;55.682;37.462;2023-04-19T05:21:12;13.02;;;7.30;;
51384;SDS011;37478;55.682;37.462;2023-04-19T05:23:37;13.43;;;7.10;;
51384;SDS011;37478;55.682;37.462;2023-04-19T05:26:03;13.38;;;7.45;;
51384;SDS011;37478;55.682;37.462;2023-04-19T05:28:28;15.50;;;6.60;;
51384;SDS011;37478;55.682;37.462;2023-04-19T05:30:53;15.23;;;7.70;;
51384;SDS011;37478;55.682;37.462;2023-04-19T05:33:19;14.95;;;7.45;;
51384;SDS011;37478;55.682;37.462;2023-04-19T05:35:44;18.88;;;7.55;;
51384;SDS011;37478;55.682;37.462;2023-04-19T05:38:09;18.52;;;7.38;;
51384;SDS011;37478;55.682;37.462;2023-04-19T05:40:35;13.73;;;7.95;;
51384;SDS011;37478;55.682;37.462;2023-04-19T05:43:00;21.10;;;7.38;;
51384;SDS011;37478;55.682;37.462;2023-04-19T05:45:25;14.52;;;8.13;;
51384;SDS011;37478;55.682;37.462;2023-04-19T05:47:50;20.23;;;7.93;;
51384;SDS011;37478;55.682;37.462;2023-04-19T05:50:16;16.90;;;8.07;;
51384;SDS011;37478;55.682;37.462;2023-04-19T05:52:44;18.38;;;7.60;;
51384;SDS011;37478;55.682;37.462;2023-04-19T05:55:09;17.15;;;7.50;;
51384;SDS011;37478;55.682;37.462;2023-04-19T05:57:34;17.63;;;7.03;;
51384;SDS011;37478;55.682;37.462;2023-04-19T06:00:00;17.40;;;8.43;;
51384;SDS011;37478;55.682;37.462;2023-04-19T06:02:25;12.57;;;7.47;;
51384;SDS011;37478;55.682;37.462;2023-04-19T06:04:51;17.95;;;8.52;;
51384;SDS011;37478;55.682;37.462;2023-04-19T06:07:16;16.20;;;6.75;;
51384;SDS011;37478;55.682;37.462;2023-04-19T06:09:42;27.33;;;8.45;;
51384;SDS011;37478;55.682;37.462;2023-04-19T06:12:07;15.02;;;8.20;;
51384;SDS011;37478;55.682;37.462;2023-04-19T06:14:32;17.35;;;7.78;;
51384;SDS011;37478;55.682;37.462;2023-04-19T06:16:58;13.55;;;7.00;;
51384;SDS011;37478;55.682;37.462;2023-04-19T06:19:23;17.40;;;7.95;;
51384;SDS011;37478;55.682;37.462;2023-04-19T06:21:48;11.13;;;6.95;;
51384;SDS011;37478;55.682;37.462;2023-04-19T06:24:14;10.00;;;6.90;;
51384;SDS011;37478;55.682;37.462;2023-04-19T06:26:39;10.90;;;7.40;;
51384;SDS011;37478;55.682;37.462;2023-04-19T06:29:04;12.15;;;6.40;;
51384;SDS011;37478;55.682;37.462;2023-04-19T06:31:30;17.17;;;6.40;;
51384;SDS011;37478;55.682;37.462;2023-04-19T06:33:56;16.30;;;7.15;;
51384;SDS011;37478;55.682;37.462;2023-04-19T06:36:21;13.77;;;6.60;;
51384;SDS011;37478;55.682;37.462;2023-04-19T06:38:46;14.55;;;7.72;;
51384;SDS011;37478;55.682;37.462;2023-04-19T06:41:13;13.13;;;6.05;;
51384;SDS011;37478;55.682;37.462;2023-04-19T06:43:39;11.50;;;6.40;;
51384;SDS011;37478;55.682;37.462;2023-04-19T06:46:06;9.63;;;6.55;;
51384;SDS011;37478;55.682;37.462;2023-04-19T06:48:32;11.73;;;5.65;;
51384;SDS011;37478;55.682;37.462;2023-04-19T06:50:58;12.20;;;5.95;;
51384;SDS011;37478;55.682;37.462;2023-04-19T06:53:23;9.80;;;6.15;;
51384;SDS011;37478;55.682;37.462;2023-04-19T06:55:52;12.07;;;5.47;;
51384;SDS011;37478;55.682;37.462;2023-04-19T06:58:17;13.57;;;5.88;;
51384;SDS011;37478;55.682;37.462;2023-04-19T07:00:42;9.68;;;5.28;;
51384;SDS011;37478;55.682;37.462;2023-04-19T07:03:08;10.55;;;6.03;;
51384;SDS011;37478;55.682;37.462;2023-04-19T07:05:33;10.70;;;5.22;;
51384;SDS011;37478;55.682;37.462;2023-04-19T07:08:00;11.43;;;4.85;;
51384;SDS011;37478;55.682;37.462;2023-04-19T07:10:25;8.80;;;4.75;;
51384;SDS011;37478;55.682;37.462;2023-04-19T07:12:50;19.15;;;6.00;;
51384;SDS011;37478;55.682;37.462;2023-04-19T07:15:16;10.23;;;5.25;;
51384;SDS011;37478;55.682;37.462;2023-04-19T07:17:41;15.10;;;5.45;;
51384;SDS011;37478;55.682;37.462;2023-04-19T07:20:07;10.50;;;5.65;;
51384;SDS011;37478;55.682;37.462;2023-04-19T07:22:33;10.23;;;5.70;;
51384;SDS011;37478;55.682;37.462;2023-04-19T07:24:58;13.48;;;5.85;;
51384;SDS011;37478;55.682;37.462;2023-04-19T07:27:23;13.70;;;6.35;;
51384;SDS011;37478;55.682;37.462;2023-04-19T07:29:49;9.50;;;5.25;;
51384;SDS011;37478;55.682;37.462;2023-04-19T07:32:15;14.48;;;5.15;;
51384;SDS011;37478;55.682;37.462;2023-04-19T07:34:40;9.55;;;5.30;;
51384;SDS011;37478;55.682;37.462;2023-04-19T07:37:06;7.32;;;5.25;;
51384;SDS011;37478;55.682;37.462;2023-04-19T07:39:32;10.50;;;5.30;;
51384;SDS011;37478;55.682;37.462;2023-04-19T07:41:57;11.10;;;4.78;;
51384;SDS011;37478;55.682;37.462;2023-04-19T07:44:23;7.57;;;4.93;;
51384;SDS011;37478;55.682;37.462;2023-04-19T07:46:48;8.25;;;5.13;;
51384;SDS011;37478;55.682;37.462;2023-04-19T07:49:14;10.65;;;5.20;;
51384;SDS011;37478;55.682;37.462;2023-04-19T07:51:39;11.98;;;5.57;;
51384;SDS011;37478;55.682;37.462;2023-04-19T07:54:04;14.27;;;5.57;;
51384;SDS011;37478;55.682;37.462;2023-04-19T07:56:30;9.20;;;5.82;;
51384;SDS011;37478;55.682;37.462;2023-04-19T07:58:56;9.13;;;4.80;;
51384;SDS011;37478;55.682;37.462;2023-04-19T08:01:21;14.05;;;5.15;;
51384;SDS011;37478;55.682;37.462;2023-04-19T08:03:47;16.40;;;5.18;;
51384;SDS011;37478;55.682;37.462;2023-04-19T08:06:12;9.30;;;5.05;;
51384;SDS011;37478;55.682;37.462;2023-04-19T08:08:38;14.82;;;5.95;;
51384;SDS011;37478;55.682;37.462;2023-04-19T08:11:03;10.88;;;4.78;;
51384;SDS011;37478;55.682;37.462;2023-04-19T08:13:29;12.20;;;5.40;;
51384;SDS011;37478;55.682;37.462;2023-04-19T08:15:54;9.50;;;4.93;;
51384;SDS011;37478;55.682;37.462;2023-04-19T08:18:20;8.35;;;5.00;;
51384;SDS011;37478;55.682;37.462;2023-04-19T08:20:45;8.57;;;4.70;;
51384;SDS011;37478;55.682;37.462;2023-04-19T08:23:11;8.20;;;4.45;;
51384;SDS011;37478;55.682;37.462;2023-04-19T08:25:36;11.27;;;4.50;;
51384;SDS011;37478;55.682;37.462;2023-04-19T08:28:02;11.90;;;5.05;;
51384;SDS011;37478;55.682;37.462;2023-04-19T08:30:27;10.13;;;4.80;;
51384;SDS011;37478;55.682;37.462;2023-04-19T08:32:52;7.00;;;4.30;;
51384;SDS011;37478;55.682;37.462;2023-04-19T08:35:18;6.75;;;4.57;;
51384;SDS011;37478;55.682;37.462;2023-04-19T08:37:44;12.23;;;5.05;;
51384;SDS011;37478;55.682;37.462;2023-04-19T08:40:09;7.60;;;4.47;;
51384;SDS011;37478;55.682;37.462;2023-04-19T08:42:35;12.50;;;4.55;;
51384;SDS011;37478;55.682;37.462;2023-04-19T08:45:01;10.27;;;4.55;;
51384;SDS011;37478;55.682;37.462;2023-04-19T08:47:31;11.55;;;4.82;;
51384;SDS011;37478;55.682;37.462;2023-04-19T08:49:56;12.63;;;5.00;;
51384;SDS011;37478;55.682;37.462;2023-04-19T08:52:23;9.48;;;5.03;;
51384;SDS011;37478;55.682;37.462;2023-04-19T08:54:49;12.10;;;5.18;;
51384;SDS011;37478;55.682;37.462;2023-04-19T08:57:14;7.03;;;4.95;;
51384;SDS011;37478;55.682;37.462;2023-04-19T08:59:40;11.85;;;4.35;;
51384;SDS011;37478;55.682;37.462;2023-04-19T09:02:09;11.45;;;4.85;;
51384;SDS011;37478;55.682;37.462;2023-04-19T09:04:34;12.02;;;4.95;;
51384;SDS011;37478;55.682;37.462;2023-04-19T09:07:00;15.05;;;4.93;;
51384;SDS011;37478;55.682;37.462;2023-04-19T09:09:26;11.32;;;4.35;;
51384;SDS011;37478;55.682;37.462;2023-04-19T09:11:51;7.78;;;4.55;;
51384;SDS011;37478;55.682;37.462;2023-04-19T09:14:17;8.32;;;4.18;;
51384;SDS011;37478;55.682;37.462;2023-04-19T09:16:43;9.77;;;4.15;;
51384;SDS011;37478;55.682;37.462;2023-04-19T09:19:08;8.02;;;3.97;;
51384;SDS011;37478;55.682;37.462;2023-04-19T09:21:36;7.80;;;4.80;;
51384;SDS011;37478;55.682;37.462;2023-04-19T09:24:01;9.90;;;4.60;;
51384;SDS011;37478;55.682;37.462;2023-04-19T09:26:27;9.95;;;4.75;;
51384;SDS011;37478;55.682;37.462;2023-04-19T09:28:59;9.88;;;4.53;;
51384;SDS011;37478;55.682;37.462;2023-04-19T09:31:26;10.07;;;4.57;;
51384;SDS011;37478;55.682;37.462;2023-04-19T09:33:52;8.60;;;4.25;;
51384;SDS011;37478;55.682;37.462;2023-04-19T09:36:28;15.70;;;5.55;;
51384;SDS011;37478;55.682;37.462;2023-04-19T09:38:54;10.13;;;4.88;;
51384;SDS011;37478;55.682;37.462;2023-04-19T09:41:20;8.80;;;5.00;;
51384;SDS011;37478;55.682;37.462;2023-04-19T09:43:45;9.32;;;5.05;;
51384;SDS011;37478;55.682;37.462;2023-04-19T09:48:58;12.85;;;5.40;;
51384;SDS011;37478;55.682;37.462;2023-04-19T09:51:45;8.30;;;4.75;;
51384;SDS011;37478;55.682;37.462;2023-04-19T09:54:12;9.02;;;4.80;;
51384;SDS011;37478;55.682;37.462;2023-04-19T09:56:37;8.32;;;5.30;;
51384;SDS011;37478;55.682;37.462;2023-04-19T09:59:03;12.65;;;4.95;;
51384;SDS011;37478;55.682;37.462;2023-04-19T10:01:34;8.90;;;5.82;;
51384;SDS011;37478;55.682;37.462;2023-04-19T10:04:01;12.70;;;5.15;;
51384;SDS011;37478;55.682;37.462;2023-04-19T10:06:28;11.90;;;5.30;;
51384;SDS011;37478;55.682;37.462;2023-04-19T10:08:53;8.25;;;4.75;;
51384;SDS011;37478;55.682;37.462;2023-04-19T10:11:20;9.45;;;5.15;;
51384;SDS011;37478;55.682;37.462;2023-04-19T10:13:51;9.98;;;6.10;;
51384;SDS011;37478;55.682;37.462;2023-04-19T10:16:18;9.95;;;5.00;;
51384;SDS011;37478;55.682;37.462;2023-04-19T10:18:43;8.43;;;5.72;;
51384;SDS011;37478;55.682;37.462;2023-04-19T10:21:09;9.02;;;4.95;;
51384;SDS011;37478;55.682;37.462;2023-04-19T10:23:35;8.80;;;5.60;;
51384;SDS011;37478;55.682;37.462;2023-04-19T10:26:01;12.70;;;5.90;;
51384;SDS011;37478;55.682;37.462;2023-04-19T10:28:29;8.95;;;5.88;;
51384;SDS011;37478;55.682;37.462;2023-04-19T10:30:59;11.90;;;5.90;;
51384;SDS011;37478;55.682;37.462;2023-04-19T10:33:28;15.80;;;6.57;;
51384;SDS011;37478;55.682;37.462;2023-04-19T10:35:56;10.13;;;4.85;;
51384;SDS011;37478;55.682;37.462;2023-04-19T10:41:00;9.48;;;5.15;;
51384;SDS011;37478;55.682;37.462;2023-04-19T10:43:29;10.38;;;6.25;;
51384;SDS011;37478;55.682;37.462;2023-04-19T10:45:58;9.63;;;5.90;;
51384;SDS011;37478;55.682;37.462;2023-04-19T10:51:04;10.77;;;6.10;;
51384;SDS011;37478;55.682;37.462;2023-04-19T10:53:43;19.90;;;7.43;;
51384;SDS011;37478;55.682;37.462;2023-04-19T10:56:09;11.60;;;5.38;;
51384;SDS011;37478;55.682;37.462;2023-04-19T11:04:04;9.93;;;5.60;;
51384;SDS011;37478;55.682;37.462;2023-04-19T11:06:29;12.30;;;6.75;;
51384;SDS011;37478;55.682;37.462;2023-04-19T11:08:55;9.82;;;6.50;;
51384;SDS011;37478;55.682;37.462;2023-04-19T11:11:20;8.55;;;5.88;;
51384;SDS011;37478;55.682;37.462;2023-04-19T11:13:46;10.60;;;5.78;;
51384;SDS011;37478;55.682;37.462;2023-04-19T11:16:12;9.68;;;6.22;;
51384;SDS011;37478;55.682;37.462;2023-04-19T11:18:37;7.93;;;5.78;;
51384;SDS011;37478;55.682;37.462;2023-04-19T11:21:02;14.45;;;6.05;;
51384;SDS011;37478;55.682;37.462;2023-04-19T11:23:28;6.13;;;4.70;;
51384;SDS011;37478;55.682;37.462;2023-04-19T11:25:54;10.38;;;5.00;;
51384;SDS011;37478;55.682;37.462;2023-04-19T11:28:19;11.65;;;5.25;;
51384;SDS011;37478;55.682;37.462;2023-04-19T11:30:45;13.30;;;5.10;;
51384;SDS011;37478;55.682;37.462;2023-04-19T11:33:11;18.90;;;7.10;;
51384;SDS011;37478;55.682;37.462;2023-04-19T11:35:36;8.95;;;5.47;;
51384;SDS011;37478;55.682;37.462;2023-04-19T11:38:02;11.25;;;5.75;;
51384;SDS011;37478;55.682;37.462;2023-04-19T11:40:29;11.00;;;5.18;;
51384;SDS011;37478;55.682;37.462;2023-04-19T11:42:58;12.05;;;5.60;;
51384;SDS011;37478;55.682;37.462;2023-04-19T11:45:30;7.38;;;5.57;;
51384;SDS011;37478;55.682;37.462;2023-04-19T11:47:56;9.65;;;6.10;;
51384;SDS011;37478;55.682;37.462;2023-04-19T11:52:56;9.60;;;4.93;;
51384;SDS011;37478;55.682;37.462;2023-04-19T11:55:22;10.18;;;5.57;;
51384;SDS011;37478;55.682;37.462;2023-04-19T11:57:47;8.63;;;5.35;;
51384;SDS011;37478;55.682;37.462;2023-04-19T12:00:13;16.08;;;6.47;;
51384;SDS011;37478;55.682;37.462;2023-04-19T12:02:39;12.18;;;6.32;;
51384;SDS011;37478;55.682;37.462;2023-04-19T12:05:08;10.75;;;5.78;;
51384;SDS011;37478;55.682;37.462;2023-04-19T12:07:34;6.90;;;4.85;;
51384;SDS011;37478;55.682;37.462;2023-04-19T12:10:06;13.65;;;5.63;;
51384;SDS011;37478;55.682;37.462;2023-04-19T12:12:34;8.07;;;4.15;;
51384;SDS011;37478;55.682;37.462;2023-04-19T12:14:59;6.20;;;4.13;;
51384;SDS011;37478;55.682;37.462;2023-04-19T12:17:24;9.30;;;4.47;;
51384;SDS011;37478;55.682;37.462;2023-04-19T12:19:50;6.32;;;4.10;;
51384;SDS011;37478;55.682;37.462;2023-04-19T12:22:16;12.00;;;4.82;;
51384;SDS011;37478;55.682;37.462;2023-04-19T12:24:44;9.70;;;5.10;;
51384;SDS011;37478;55.682;37.462;2023-04-19T12:27:09;6.65;;;4.60;;
51384;SDS011;37478;55.682;37.462;2023-04-19T12:29:35;9.57;;;4.93;;
51384;SDS011;37478;55.682;37.462;2023-04-19T12:32:01;10.20;;;5.13;;
51384;SDS011;37478;55.682;37.462;2023-04-19T12:34:26;7.25;;;4.97;;
51384;SDS011;37478;55.682;37.462;2023-04-19T12:36:52;9.48;;;5.30;;
51384;SDS011;37478;55.682;37.462;2023-04-19T12:39:17;7.47;;;5.45;;
51384;SDS011;37478;55.682;37.462;2023-04-19T12:41:43;8.27;;;5.15;;
51384;SDS011;37478;55.682;37.462;2023-04-19T12:44:08;7.90;;;5.35;;
51384;SDS011;37478;55.682;37.462;2023-04-19T12:46:33;10.90;;;5.13;;
51384;SDS011;37478;55.682;37.462;2023-04-19T12:48:59;10.60;;;5.13;;
51384;SDS011;37478;55.682;37.462;2023-04-19T12:51:24;7.07;;;4.78;;
51384;SDS011;37478;55.682;37.462;2023-04-19T12:53:49;9.57;;;5.65;;
51384;SDS011;37478;55.682;37.462;2023-04-19T12:56:15;10.38;;;4.43;;
51384;SDS011;37478;55.682;37.462;2023-04-19T12:58:41;7.18;;;5.00;;
51384;SDS011;37478;55.682;37.462;2023-04-19T13:01:06;6.55;;;4.43;;
51384;SDS011;37478;55.682;37.462;2023-04-19T13:03:31;8.82;;;4.32;;
51384;SDS011;37478;55.682;37.462;2023-04-19T13:06:00;9.48;;;4.90;;
51384;SDS011;37478;55.682;37.462;2023-04-19T13:08:25;11.65;;;5.18;;
51384;SDS011;37478;55.682;37.462;2023-04-19T13:10:51;7.00;;;4.72;;
51384;SDS011;37478;55.682;37.462;2023-04-19T13:13:16;9.10;;;4.78;;
51384;SDS011;37478;55.682;37.462;2023-04-19T13:15:41;9.60;;;4.88;;
51384;SDS011;37478;55.682;37.462;2023-04-19T13:18:07;8.90;;;5.47;;
51384;SDS011;37478;55.682;37.462;2023-04-19T13:20:32;11.73;;;4.70;;
51384;SDS011;37478;55.682;37.462;2023-04-19T13:22:57;11.25;;;5.40;;
51384;SDS011;37478;55.682;37.462;2023-04-19T13:25:22;8.00;;;4.80;;
51384;SDS011;37478;55.682;37.462;2023-04-19T13:27:48;9.23;;;4.60;;
51384;SDS011;37478;55.682;37.462;2023-04-19T13:30:13;11.88;;;5.13;;
51384;SDS011;37478;55.682;37.462;2023-04-19T13:32:39;8.43;;;4.88;;
51384;SDS011;37478;55.682;37.462;2023-04-19T13:35:04;6.85;;;4.90;;
51384;SDS011;37478;55.682;37.462;2023-04-19T13:37:36;10.05;;;5.40;;
51384;SDS011;37478;55.682;37.462;2023-04-19T13:40:07;9.23;;;4.68;;
51384;SDS011;37478;55.682;37.462;2023-04-19T13:42:33;9.95;;;4.35;;
51384;SDS011;37478;55.682;37.462;2023-04-19T13:44:58;5.25;;;4.20;;
51384;SDS011;37478;55.682;37.462;2023-04-19T13:47:23;7.50;;;4.30;;
51384;SDS011;37478;55.682;37.462;2023-04-19T13:49:49;11.38;;;5.25;;
51384;SDS011;37478;55.682;37.462;2023-04-19T13:52:19;7.38;;;4.53;;
51384;SDS011;37478;55.682;37.462;2023-04-19T13:54:44;8.52;;;4.22;;
51384;SDS011;37478;55.682;37.462;2023-04-19T13:57:10;11.05;;;5.25;;
51384;SDS011;37478;55.682;37.462;2023-04-19T13:59:36;7.05;;;4.68;;
51384;SDS011;37478;55.682;37.462;2023-04-19T14:02:02;6.85;;;4.57;;
51384;SDS011;37478;55.682;37.462;2023-04-19T14:04:27;10.98;;;5.18;;
51384;SDS011;37478;55.682;37.462;2023-04-19T14:06:52;11.77;;;5.00;;
51384;SDS011;37478;55.682;37.462;2023-04-19T14:09:18;8.43;;;4.90;;
51384;SDS011;37478;55.682;37.462;2023-04-19T14:11:43;9.02;;;5.30;;
51384;SDS011;37478;55.682;37.462;2023-04-19T14:14:09;9.32;;;5.00;;
51384;SDS011;37478;55.682;37.462;2023-04-19T14:16:40;11.82;;;4.97;;
51384;SDS011;37478;55.682;37.462;2023-04-19T14:19:05;8.13;;;4.57;;
51384;SDS011;37478;55.682;37.462;2023-04-19T14:21:37;6.80;;;4.68;;
51384;SDS011;37478;55.682;37.462;2023-04-19T14:24:02;6.32;;;4.28;;
51384;SDS011;37478;55.682;37.462;2023-04-19T14:26:33;9.95;;;4.85;;
51384;SDS011;37478;55.682;37.462;2023-04-19T14:28:59;8.45;;;4.72;;
51384;SDS011;37478;55.682;37.462;2023-04-19T14:31:24;11.52;;;4.80;;
51384;SDS011;37478;55.682;37.462;2023-04-19T14:33:49;8.50;;;5.07;;